GCLALPMA

Guest
Details From GCLA - La Palma
To LPMA - Madeira
Flight Number -
Tags generated
Created
Modified
Stats Distance 281 nm / 520 km
Max Altitude 33,100 ft / 10,089 m
Waypoints 4
Social Downloads 0
Likes 0
Share VATSIM

Download

Looking for another format? Having issues loading an existing format? Contact us
Advertisement - Login to hide

Notes

Basic altitude profile: - Ascent Rate: 1000ft/min - Ascent Speed: 120kts - Cruise Altitude: 10000ft - Cruise Speed: 160kts - Descent Rate: 1000ft/min - Descent Speed: 140kts Options: - Use NATs: no - Use PACOTS: no - Use low airways: yes - Use high airways: no

Route

GCLA BRICK G851 ORTIS LPMA

ID Type Via Altitude Latitude Longitude Leg Dist Tot Dist Heading (true) Name
O GCLA APT - 0 ft / 0 m 28.62648˚ -17.75561˚ - 0 nm - La Palma
BRICK FIX - 33,100 ft / 10,089 m 29.59137˚ -16.37289˚ 92 nm 92 nm 51° / 52° -
ORTIS FIX G851 (AWY-LO) 16,700 ft / 5,090 m 31.40696˚ -16.55691˚ 109 nm 202 nm 355° / 355° -
O LPMA APT - 0 ft / 0 m 32.69770˚ -16.77445˚ 78 nm 280 nm 352° / 352° Madeira

Altitude Profile

Advertisement - Login to hide

Weather


0- 5 10 15 20 25 30 35+ Temperature / ° C

Clouds and Precipitation
Forecast for 2018-05-23 18:00 UTC. Updated 4 hours ago

Ground ~20,000 ft ~40,000 ft Winds

GCLA

Details ICAO GCLA (SPC)
Name La Palma
Region Canary Islands
Timezone Atlantic/Canary (UTC+1.0)
Stats Elevation 107 ft / 33 m (AMSL)
Location 28.626480° -17.755613°
Runways 1
Magnetic Variation 5.470° W

METAR

GCLA 232030Z AUTO 10003KT 050V160 9999 NCD 19/10 Q1019

Decode

TAF

TAF GCLA 232000Z 2321/2421 22003KT 9999 SCT040 TX22/2414Z TN16/2405Z BECMG 2410/2412 03012KT

Decode

Departure Runways

ID Width Length Bearing (true) Bearing (mag) Surface Threshold Offset Overrun Length
01 148 ft / 45 m 7,240 ft / 2,207 m 359.02° 4.49° Asphalt 0 ft / 0 m 279 ft / 85 m
19 148 ft / 45 m 7,240 ft / 2,207 m 179.02° 184.49° Asphalt 0 ft / 0 m 236 ft / 72 m

LPMA

Details ICAO LPMA (FNC)
Name Madeira
Region Portugal
Timezone Atlantic/Madeira (UTC+1.0)
Stats Elevation 192 ft / 59 m (AMSL)
Location 32.697704° -16.774449°
Runways 1
Magnetic Variation 4.928° W

METAR

LPMA 232030Z 33005KT 270V020 9999 SCT015 17/12 Q1016

Decode

TAF

TAF LPMA 231700Z 2318/2418 VRB05KT 9999 FEW015 SCT030 TEMPO 2318/2418 SCT015 BKN030 PROB30 TEMPO 2318/2406 8000 SHRA BKN015 FEW025TCU BECMG 2320/2323 35013KT

Decode

Destination Runways

ID Width Length Bearing (true) Bearing (mag) Surface Threshold Offset Overrun Length
05 141 ft / 43 m 8,683 ft / 2,647 m 42.98° 47.91° Asphalt 472 ft / 144 m 0 ft / 0 m
23 141 ft / 43 m 8,683 ft / 2,647 m 222.99° 227.92° Asphalt 466 ft / 142 m 0 ft / 0 m

Popular Alternatives